Time;durP1;ratioP1;P1;durP2;ratioP2;P2;SDS_P1;SDS_P2;PMS_P1;PMS_P2;Temp;Humidity;BMP_temperature;BMP_pressure;BME280_temperature;BME280_humidity;BME280_pressure;Samples;Min_cycle;Max_cycle;Signal;HPM_P1;HPM_P2
2023/05/10 00:01:40;;;;;;;;;;;22.00;61.80;;;;;;5108654;27;42951;-82
2023/05/10 00:04:06;;;;;;;;;;;22.20;61.80;;;;;;5090957;27;43512;-82
2023/05/10 00:06:31;;;;;;;;;;;21.90;61.60;;;;;;5087639;27;42894;-82
2023/05/10 00:08:57;;;;;;;;;;;22.00;61.90;;;;;;5087502;27;43297;-82
2023/05/10 00:11:22;;;;;;;;;;;22.00;61.80;;;;;;5085635;28;42976;-82
2023/05/10 00:13:48;;;;;;;;;;;22.00;61.60;;;;;;5085774;28;44428;-82
2023/05/10 00:16:13;;;;;;;;;;;22.00;62.00;;;;;;5102821;27;43464;-83
2023/05/10 00:18:40;;;;;;;;;;;21.90;62.00;;;;;;5107735;27;43266;-83
2023/05/10 00:21:06;;;;;;;;;;;21.90;62.00;;;;;;5106148;27;43018;-82
2023/05/10 00:23:32;;;;;;;;;;;22.00;62.20;;;;;;5094574;27;44746;-83
2023/05/10 00:25:58;;;;;;;;;;;21.90;62.10;;;;;;5066185;28;42948;-81
2023/05/10 00:28:23;;;;;;;;;;;22.00;62.10;;;;;;5077802;28;43275;-82
2023/05/10 00:30:49;;;;;;;;;;;21.90;62.20;;;;;;5075633;28;42890;-81
2023/05/10 00:33:14;;;;;;;;;;;21.90;62.30;;;;;;5087418;28;43335;-82
2023/05/10 00:35:40;;;;;;;;;;;22.00;62.40;;;;;;5083591;27;43108;-82
2023/05/10 00:38:06;;;;;;;;;;;22.00;62.50;;;;;;5087058;27;42971;-81
2023/05/10 00:40:31;;;;;;;;;;;21.90;62.50;;;;;;5087497;27;42949;-82
2023/05/10 00:42:58;;;;;;;;;;;22.00;62.50;;;;;;5085663;28;43483;-81
2023/05/10 00:45:23;;;;;;;;;;;21.90;62.40;;;;;;5087178;27;42920;-81
2023/05/10 00:47:49;;;;;;;;;;;22.10;62.60;;;;;;5086545;28;43152;-82
2023/05/10 00:50:15;;;;;;;;;;;21.90;62.50;;;;;;5086448;28;42941;-81
2023/05/10 00:52:41;;;;;;;;;;;21.90;62.30;;;;;;5087332;27;42934;-81
2023/05/10 00:55:08;;;;;;;;;;;21.80;62.40;;;;;;5086584;27;43079;-80
2023/05/10 00:57:33;;;;;;;;;;;22.00;62.20;;;;;;5086629;27;43397;-81
2023/05/10 00:59:59;;;;;;;;;;;21.90;62.20;;;;;;5086260;28;42843;-81
2023/05/10 01:02:24;;;;;;;;;;;22.00;61.00;;;;;;5080628;28;44259;-81
2023/05/10 01:04:51;;;;;;;;;;;21.90;62.40;;;;;;5071471;28;43317;-81
2023/05/10 01:07:17;;;;;;;;;;;21.90;61.70;;;;;;5085782;28;42975;-81
2023/05/10 01:09:42;;;;;;;;;;;21.90;61.50;;;;;;5084517;28;43021;-81
2023/05/10 01:12:08;;;;;;;;;;;22.00;61.30;;;;;;5086193;28;43698;-81
2023/05/10 01:14:35;;;;;;;;;;;21.90;61.30;;;;;;5084986;27;42984;-81
2023/05/10 01:17:01;;;;;;;;;;;22.00;61.30;;;;;;5085019;27;42973;-81
2023/05/10 01:19:29;;;;;;;;;;;21.90;61.20;;;;;;5085040;27;42984;-81
2023/05/10 01:22:00;;;;;;;;;;;22.00;61.40;;;;;;5084661;28;45455;-82
2023/05/10 01:24:32;;;;;;;;;;;21.90;61.30;;;;;;5086489;28;43182;-81
2023/05/10 01:27:06;;;;;;;;;;;21.90;61.30;;;;;;5085539;28;43584;-81
2023/05/10 01:29:32;;;;;;;;;;;22.00;61.00;;;;;;5086083;28;42978;-81
2023/05/10 01:32:03;;;;;;;;;;;21.80;60.90;;;;;;5085661;28;43494;-82
2023/05/10 01:34:49;;;;;;;;;;;22.00;61.30;;;;;;5086206;28;42818;-81
2023/05/10 01:37:15;;;;;;;;;;;;;;;;;;5072788;28;43233;-82
2023/05/10 01:39:49;;;;;;;;;;;21.90;60.90;;;;;;5084945;28;42929;-81
2023/05/10 01:42:21;;;;;;;;;;;21.90;61.00;;;;;;5086003;27;42917;-81
2023/05/10 01:44:56;;;;;;;;;;;22.00;61.20;;;;;;5085511;27;43194;-81
2023/05/10 01:47:35;;;;;;;;;;;21.90;61.00;;;;;;5085000;27;43666;-81
2023/05/10 01:50:02;;;;;;;;;;;22.00;60.90;;;;;;5084411;28;42983;-81
2023/05/10 01:52:37;;;;;;;;;;;21.90;61.10;;;;;;5083365;27;43408;-80
2023/05/10 01:55:07;;;;;;;;;;;22.00;61.30;;;;;;5084608;27;43365;-81
2023/05/10 01:57:34;;;;;;;;;;;22.00;61.00;;;;;;5083905;28;43469;-80
2023/05/10 02:00:00;;;;;;;;;;;21.90;61.00;;;;;;5086308;27;43003;-80
2023/05/10 02:02:27;;;;;;;;;;;21.90;61.00;;;;;;5085644;27;42823;-80
2023/05/10 02:04:55;;;;;;;;;;;21.80;60.90;;;;;;5086496;27;43065;-80
2023/05/10 02:07:21;;;;;;;;;;;21.90;61.00;;;;;;5085348;27;43907;-80
2023/05/10 02:09:47;;;;;;;;;;;21.70;61.00;;;;;;5068023;28;42874;-80
2023/05/10 02:12:13;;;;;;;;;;;21.80;61.00;;;;;;5091998;27;43674;-80
2023/05/10 02:14:40;;;;;;;;;;;22.00;61.10;;;;;;5106507;27;43229;-80
2023/05/10 02:17:07;;;;;;;;;;;22.00;61.20;;;;;;5092074;27;43595;-80
2023/05/10 02:19:34;;;;;;;;;;;21.90;61.30;;;;;;5085306;27;43045;-80
2023/05/10 02:22:00;;;;;;;;;;;21.90;61.20;;;;;;5085748;27;42930;-80
2023/05/10 02:24:26;;;;;;;;;;;22.00;60.70;;;;;;5078633;28;42944;-80
2023/05/10 02:26:54;;;;;;;;;;;21.90;60.80;;;;;;5065348;28;43086;-80
2023/05/10 02:29:20;;;;;;;;;;;22.00;60.90;;;;;;5093011;27;42784;-81
2023/05/10 02:31:46;;;;;;;;;;;21.90;61.10;;;;;;5105503;27;43651;-81
2023/05/10 02:34:12;;;;;;;;;;;21.80;60.90;;;;;;5106290;27;42904;-80
2023/05/10 02:36:38;;;;;;;;;;;21.80;61.10;;;;;;5087737;27;43043;-80
2023/05/10 02:39:04;;;;;;;;;;;21.80;61.00;;;;;;5085184;27;42947;-80
2023/05/10 02:41:31;;;;;;;;;;;21.80;61.00;;;;;;5085420;28;42960;-80
2023/05/10 02:43:59;;;;;;;;;;;21.90;60.90;;;;;;5084769;27;43009;-80
2023/05/10 02:46:25;;;;;;;;;;;21.90;60.70;;;;;;5084702;28;42980;-80
2023/05/10 02:48:50;;;;;;;;;;;21.80;60.70;;;;;;5083708;28;42914;-80
2023/05/10 02:51:17;;;;;;;;;;;21.90;60.80;;;;;;5083247;28;43474;-81
2023/05/10 02:53:43;;;;;;;;;;;22.00;60.80;;;;;;5083093;28;43017;-81
2023/05/10 02:56:13;;;;;;;;;;;21.90;60.40;;;;;;5084829;27;44382;-81
2023/05/10 02:58:38;;;;;;;;;;;22.00;60.50;;;;;;5083714;28;43549;-81
2023/05/10 03:01:04;;;;;;;;;;;21.90;60.70;;;;;;5084984;28;43047;-81
2023/05/10 03:03:29;;;;;;;;;;;22.00;60.70;;;;;;5084800;28;43028;-80
2023/05/10 03:05:56;;;;;;;;;;;22.00;60.80;;;;;;5084408;28;43077;-81
2023/05/10 03:08:23;;;;;;;;;;;21.80;60.70;;;;;;5084668;28;42984;-81
2023/05/10 03:10:55;;;;;;;;;;;21.90;60.60;;;;;;5084381;27;42984;-80
2023/05/10 03:13:38;;;;;;;;;;;21.80;60.60;;;;;;5083539;27;42885;-81
2023/05/10 03:16:15;;;;;;;;;;;22.00;60.80;;;;;;5083650;27;44086;-81
2023/05/10 03:18:40;;;;;;;;;;;21.90;60.50;;;;;;5084245;27;43025;-80
2023/05/10 03:21:08;;;;;;;;;;;21.80;60.70;;;;;;5083996;28;43611;-80
2023/05/10 03:23:34;;;;;;;;;;;21.70;60.80;;;;;;5083700;27;43199;-81
2023/05/10 03:26:00;;;;;;;;;;;21.80;60.80;;;;;;5082326;28;44048;-81
2023/05/10 03:28:27;;;;;;;;;;;22.00;60.60;;;;;;5084046;27;42928;-81
2023/05/10 03:30:53;;;;;;;;;;;22.00;60.40;;;;;;5084180;27;43197;-81
2023/05/10 03:33:18;;;;;;;;;;;21.80;60.50;;;;;;5083647;27;43271;-77
2023/05/10 03:35:45;;;;;;;;;;;22.00;60.70;;;;;;5084205;28;43073;-78
2023/05/10 03:38:11;;;;;;;;;;;21.80;60.70;;;;;;5084315;27;42995;-78
2023/05/10 03:40:37;;;;;;;;;;;21.70;60.90;;;;;;5084471;27;43078;-78
2023/05/10 03:43:02;;;;;;;;;;;21.80;60.60;;;;;;5084008;28;43292;-78
2023/05/10 03:45:28;;;;;;;;;;;21.80;60.80;;;;;;5084126;27;43667;-78
2023/05/10 03:47:54;;;;;;;;;;;21.80;60.50;;;;;;5084032;28;42941;-78
2023/05/10 03:50:19;;;;;;;;;;;21.80;61.00;;;;;;5084721;28;43401;-78
2023/05/10 03:52:45;;;;;;;;;;;21.70;60.90;;;;;;5084211;27;42952;-79
2023/05/10 03:55:11;;;;;;;;;;;21.90;60.70;;;;;;5087874;27;43073;-77
2023/05/10 03:57:37;;;;;;;;;;;21.80;60.90;;;;;;5104615;27;42934;-78
2023/05/10 04:00:03;;;;;;;;;;;22.00;60.80;;;;;;5084693;27;43723;-78
2023/05/10 04:02:30;;;;;;;;;;;21.90;60.70;;;;;;5082619;27;43032;-78
2023/05/10 04:04:55;;;;;;;;;;;21.90;60.70;;;;;;5083838;27;43069;-78
2023/05/10 04:07:21;;;;;;;;;;;21.80;60.60;;;;;;5084635;27;42746;-79
2023/05/10 04:09:46;;;;;;;;;;;21.90;60.50;;;;;;5086381;27;42858;-79
2023/05/10 04:12:12;;;;;;;;;;;21.80;60.90;;;;;;5087712;28;42967;-79
2023/05/10 04:14:38;;;;;;;;;;;21.70;61.30;;;;;;5087627;27;43472;-78
2023/05/10 04:17:03;;;;;;;;;;;21.70;60.40;;;;;;5087960;28;42801;-78
2023/05/10 04:19:29;;;;;;;;;;;21.80;60.40;;;;;;5087829;28;42964;-78
2023/05/10 04:21:55;;;;;;;;;;;21.90;60.40;;;;;;5087041;27;43094;-78
2023/05/10 04:24:20;;;;;;;;;;;22.00;60.40;;;;;;5085534;28;43317;-78
2023/05/10 04:26:46;;;;;;;;;;;21.80;60.30;;;;;;5086926;28;42967;-78
2023/05/10 04:29:12;;;;;;;;;;;21.80;60.20;;;;;;5079121;28;43788;-78
2023/05/10 04:31:37;;;;;;;;;;;22.00;60.30;;;;;;5078796;28;43448;-78
2023/05/10 04:34:03;;;;;;;;;;;21.80;60.10;;;;;;5086969;27;43058;-78
2023/05/10 04:36:28;;;;;;;;;;;21.90;60.50;;;;;;5083779;28;42972;-82
2023/05/10 04:38:54;;;;;;;;;;;22.00;60.70;;;;;;5086198;27;44548;-83
2023/05/10 04:41:20;;;;;;;;;;;22.00;60.30;;;;;;5086661;28;43098;-82
2023/05/10 04:43:46;;;;;;;;;;;21.70;60.00;;;;;;5086810;27;43950;-82
2023/05/10 04:46:11;;;;;;;;;;;21.90;60.20;;;;;;5087472;28;42910;-82
2023/05/10 04:48:37;;;;;;;;;;;21.90;60.00;;;;;;5086537;27;43257;-82
2023/05/10 04:51:03;;;;;;;;;;;;;;;;;;5084837;28;43005;-82
2023/05/10 04:53:29;;;;;;;;;;;21.80;59.80;;;;;;5084994;27;43839;-83
2023/05/10 04:55:55;;;;;;;;;;;21.70;59.90;;;;;;5086519;27;43118;-83
2023/05/10 04:58:20;;;;;;;;;;;21.90;60.00;;;;;;5085575;27;42894;-83
2023/05/10 05:00:46;;;;;;;;;;;21.80;59.20;;;;;;5086376;27;43074;-81
2023/05/10 05:03:11;;;;;;;;;;;21.70;59.60;;;;;;5086642;27;43899;-82
2023/05/10 05:05:37;;;;;;;;;;;21.80;59.70;;;;;;5086546;27;43048;-83
2023/05/10 05:08:03;;;;;;;;;;;21.70;59.50;;;;;;5086724;28;43608;-82
2023/05/10 05:10:28;;;;;;;;;;;21.70;59.30;;;;;;5085634;28;42970;-83
2023/05/10 05:12:54;;;;;;;;;;;21.90;59.60;;;;;;5085660;28;42850;-83
2023/05/10 05:15:19;;;;;;;;;;;21.90;59.80;;;;;;5086193;28;42909;-82
2023/05/10 05:17:45;;;;;;;;;;;21.90;59.60;;;;;;5086681;28;42827;-83
2023/05/10 05:20:10;;;;;;;;;;;21.80;59.20;;;;;;5085964;27;43575;-83
2023/05/10 05:22:37;;;;;;;;;;;21.70;59.60;;;;;;5083399;28;43537;-83
2023/05/10 05:25:03;;;;;;;;;;;21.80;59.60;;;;;;5085889;27;43152;-83
2023/05/10 05:27:29;;;;;;;;;;;21.70;59.40;;;;;;5086090;27;43000;-83
2023/05/10 05:29:55;;;;;;;;;;;21.80;59.50;;;;;;5085278;28;43110;-79
2023/05/10 05:32:21;;;;;;;;;;;21.80;59.50;;;;;;5085330;27;43492;-82
2023/05/10 05:34:53;;;;;;;;;;;21.90;59.80;;;;;;5086059;28;43091;-85
2023/05/10 05:37:19;;;;;;;;;;;21.80;59.40;;;;;;5066871;27;43106;-82
2023/05/10 05:39:45;;;;;;;;;;;21.90;59.30;;;;;;5082514;28;43073;-82
2023/05/10 05:42:12;;;;;;;;;;;21.70;59.00;;;;;;5080312;28;44394;-84
2023/05/10 05:44:38;;;;;;;;;;;21.50;59.30;;;;;;5082456;28;43091;-82
2023/05/10 05:47:04;;;;;;;;;;;21.70;59.10;;;;;;5084398;27;43153;-84
2023/05/10 05:49:30;;;;;;;;;;;21.50;59.00;;;;;;5082423;28;43210;-83
2023/05/10 05:52:00;;;;;;;;;;;21.60;59.30;;;;;;5086266;27;42996;-83
2023/05/10 05:54:25;;;;;;;;;;;21.40;59.50;;;;;;5091487;27;42999;-82
2023/05/10 05:56:53;;;;;;;;;;;21.40;59.50;;;;;;5087785;27;42929;-81
2023/05/10 05:59:18;;;;;;;;;;;21.40;59.90;;;;;;5085556;27;43173;-81
2023/05/10 06:01:45;;;;;;;;;;;21.30;59.90;;;;;;5081571;28;43602;-80
2023/05/10 06:04:10;;;;;;;;;;;21.10;59.90;;;;;;5083814;27;42953;-81
2023/05/10 06:06:36;;;;;;;;;;;21.20;60.00;;;;;;5085259;28;42900;-81
2023/05/10 06:09:02;;;;;;;;;;;21.00;60.10;;;;;;5085740;27;43081;-80
2023/05/10 06:11:27;;;;;;;;;;;21.00;60.20;;;;;;5080623;27;43151;-80
2023/05/10 06:13:53;;;;;;;;;;;21.10;60.30;;;;;;5081115;28;42937;-80
2023/05/10 06:16:18;;;;;;;;;;;21.10;60.40;;;;;;5084002;28;42832;-81
2023/05/10 06:18:44;;;;;;;;;;;21.00;60.30;;;;;;5084506;28;42941;-81
2023/05/10 06:21:09;;;;;;;;;;;21.10;60.60;;;;;;5082129;28;43970;-80
2023/05/10 06:23:35;;;;;;;;;;;21.00;60.50;;;;;;5076044;28;42892;-81
2023/05/10 06:26:01;;;;;;;;;;;21.10;60.40;;;;;;5073726;27;44303;-80
2023/05/10 06:28:26;;;;;;;;;;;21.10;60.60;;;;;;5085071;28;42925;-79
2023/05/10 06:30:52;;;;;;;;;;;21.00;60.60;;;;;;5085861;27;43307;-82
2023/05/10 06:33:17;;;;;;;;;;;20.90;60.70;;;;;;5093110;27;42969;-82
2023/05/10 06:35:43;;;;;;;;;;;21.00;60.70;;;;;;5085034;28;43530;-80
2023/05/10 06:38:08;;;;;;;;;;;21.00;60.70;;;;;;5085344;28;43014;-82
2023/05/10 06:40:34;;;;;;;;;;;20.80;60.70;;;;;;5085329;28;43124;-82
2023/05/10 06:43:00;;;;;;;;;;;21.00;60.80;;;;;;5081770;28;43023;-80
2023/05/10 06:45:25;;;;;;;;;;;21.20;60.50;;;;;;5084374;27;43739;-76
2023/05/10 06:47:51;;;;;;;;;;;21.20;60.50;;;;;;5084233;28;42978;-79
2023/05/10 06:50:16;;;;;;;;;;;21.20;60.30;;;;;;5080206;28;44039;-79
2023/05/10 06:52:42;;;;;;;;;;;21.20;60.40;;;;;;5083434;28;42976;-79
2023/05/10 06:55:08;;;;;;;;;;;21.40;60.60;;;;;;5077917;27;42997;-80
2023/05/10 06:57:34;;;;;;;;;;;21.30;60.80;;;;;;5084213;27;43047;-81
2023/05/10 06:59:59;;;;;;;;;;;21.30;60.70;;;;;;5083680;28;43872;-81
2023/05/10 07:02:25;;;;;;;;;;;21.40;60.90;;;;;;5084813;27;42933;-80
2023/05/10 07:04:51;;;;;;;;;;;21.20;59.60;;;;;;5083907;28;43731;-81
2023/05/10 07:07:17;;;;;;;;;;;21.30;61.00;;;;;;5078541;27;42999;-81
2023/05/10 07:09:42;;;;;;;;;;;21.40;60.90;;;;;;5082783;28;43020;-83
2023/05/10 07:12:08;;;;;;;;;;;;;;;;;;5082885;28;43567;-82
2023/05/10 07:14:34;;;;;;;;;;;21.30;60.00;;;;;;5084475;28;43396;-84
2023/05/10 07:16:59;;;;;;;;;;;21.30;59.30;;;;;;5084665;28;42976;-81
2023/05/10 07:19:25;;;;;;;;;;;21.50;59.10;;;;;;5083117;28;42929;-82
2023/05/10 07:21:50;;;;;;;;;;;21.30;59.10;;;;;;5084779;27;42924;-82
2023/05/10 07:24:16;;;;;;;;;;;21.30;59.50;;;;;;5084828;28;43581;-82
2023/05/10 07:26:41;;;;;;;;;;;21.40;60.10;;;;;;5083771;28;42959;-83
2023/05/10 07:29:07;;;;;;;;;;;21.30;60.30;;;;;;5085335;28;42915;-83
2023/05/10 07:31:32;;;;;;;;;;;21.10;60.30;;;;;;5085196;28;43102;-82
2023/05/10 07:33:58;;;;;;;;;;;21.30;60.70;;;;;;5085274;28;42749;-82
2023/05/10 07:36:24;;;;;;;;;;;21.00;60.80;;;;;;5084585;28;42941;-82
2023/05/10 07:38:49;;;;;;;;;;;21.20;60.90;;;;;;5084517;27;43735;-82
2023/05/10 07:41:15;;;;;;;;;;;21.00;60.80;;;;;;5084815;28;43048;-83
2023/05/10 07:43:40;;;;;;;;;;;21.30;60.50;;;;;;5084916;27;43012;-84
2023/05/10 07:46:06;;;;;;;;;;;21.30;60.30;;;;;;5088809;28;42976;-83
2023/05/10 07:48:31;;;;;;;;;;;21.10;60.20;;;;;;5088451;27;43093;-83
2023/05/10 07:50:57;;;;;;;;;;;21.20;59.90;;;;;;5088817;28;43003;-82
2023/05/10 07:53:22;;;;;;;;;;;21.20;59.40;;;;;;5088423;28;43396;-83
2023/05/10 07:55:54;;;;;;;;;;;21.20;59.60;;;;;;5087187;28;43078;-82
2023/05/10 07:58:19;;;;;;;;;;;21.30;59.70;;;;;;5088485;28;43391;-84
2023/05/10 08:00:56;;;;;;;;;;;21.40;59.60;;;;;;5088205;28;42978;-82
2023/05/10 08:03:22;;;;;;;;;;;21.40;59.00;;;;;;5087855;27;43734;-82
2023/05/10 08:05:47;;;;;;;;;;;21.50;58.80;;;;;;5088371;28;42938;-83
2023/05/10 08:08:13;;;;;;;;;;;21.50;58.80;;;;;;5087936;27;43246;-82
2023/05/10 08:10:38;;;;;;;;;;;21.30;58.70;;;;;;5088334;28;43041;-82
2023/05/10 08:13:04;;;;;;;;;;;21.30;59.00;;;;;;5088041;28;42984;-83
2023/05/10 08:15:29;;;;;;;;;;;21.20;59.10;;;;;;5088393;28;42858;-82
2023/05/10 08:17:55;;;;;;;;;;;21.20;59.30;;;;;;5087501;28;43478;-83
2023/05/10 08:20:21;;;;;;;;;;;;;;;;;;5087772;28;42802;-82
2023/05/10 08:22:46;;;;;;;;;;;21.30;59.60;;;;;;5086132;28;43523;-82
2023/05/10 08:25:12;;;;;;;;;;;21.40;59.80;;;;;;5087842;27;42925;-83
2023/05/10 08:27:37;;;;;;;;;;;21.20;59.50;;;;;;5087552;28;42953;-82
2023/05/10 08:30:03;;;;;;;;;;;21.30;60.00;;;;;;5087745;28;42976;-82
2023/05/10 08:32:28;;;;;;;;;;;21.20;60.30;;;;;;5086152;28;44434;-83
2023/05/10 08:34:54;;;;;;;;;;;21.20;60.70;;;;;;5088014;28;42982;-82
2023/05/10 08:37:20;;;;;;;;;;;21.20;60.50;;;;;;5086909;27;43394;-83
2023/05/10 08:39:47;;;;;;;;;;;21.10;60.50;;;;;;5086924;28;43018;-83
2023/05/10 08:42:15;;;;;;;;;;;21.10;60.40;;;;;;5088286;27;43238;-82
2023/05/10 08:44:41;;;;;;;;;;;21.20;60.20;;;;;;5087900;27;42786;-82
2023/05/10 08:47:07;;;;;;;;;;;21.10;59.80;;;;;;5087286;27;43364;-82
2023/05/10 08:49:33;;;;;;;;;;;21.10;60.10;;;;;;5087455;27;43047;-82
2023/05/10 08:52:01;;;;;;;;;;;21.20;60.30;;;;;;5087321;27;43527;-82
2023/05/10 08:54:27;;;;;;;;;;;21.20;60.20;;;;;;5087329;27;42881;-82
2023/05/10 08:56:53;;;;;;;;;;;21.30;59.70;;;;;;5086084;27;43031;-82
2023/05/10 08:59:18;;;;;;;;;;;21.30;59.90;;;;;;5086545;27;42964;-82
2023/05/10 09:01:45;;;;;;;;;;;21.20;59.80;;;;;;5087865;27;43262;-82
2023/05/10 09:04:11;;;;;;;;;;;;;;;;;;5087230;27;42812;-84
2023/05/10 09:06:37;;;;;;;;;;;21.30;60.50;;;;;;5087498;27;43361;-81
2023/05/10 09:09:03;;;;;;;;;;;21.10;60.20;;;;;;5087394;28;42832;-81
2023/05/10 09:11:29;;;;;;;;;;;21.20;60.40;;;;;;5087419;27;43028;-85
2023/05/10 09:13:55;;;;;;;;;;;21.10;60.30;;;;;;5087607;28;42914;-82
2023/05/10 09:16:21;;;;;;;;;;;21.10;60.60;;;;;;5086869;28;43024;-82
2023/05/10 09:18:47;;;;;;;;;;;;;;;;;;5087458;28;43205;-82
2023/05/10 09:21:13;;;;;;;;;;;21.40;60.40;;;;;;5086929;28;42898;-83
2023/05/10 09:23:42;;;;;;;;;;;21.20;60.50;;;;;;5086718;27;42882;-82
2023/05/10 09:26:07;;;;;;;;;;;21.20;60.40;;;;;;5086778;27;43776;-83
2023/05/10 09:28:33;;;;;;;;;;;21.30;60.40;;;;;;5087136;27;42767;-82
2023/05/10 09:30:59;;;;;;;;;;;21.10;60.50;;;;;;5087150;27;42999;-82
2023/05/10 09:33:25;;;;;;;;;;;21.00;60.70;;;;;;5086957;28;43119;-82
2023/05/10 09:35:51;;;;;;;;;;;21.00;61.30;;;;;;5086531;28;43012;-82
2023/05/10 09:38:17;;;;;;;;;;;21.00;61.00;;;;;;5087087;27;43040;-82
2023/05/10 09:40:54;;;;;;;;;;;21.00;61.20;;;;;;5086844;28;43582;-83
2023/05/10 09:43:19;;;;;;;;;;;21.90;61.40;;;;;;5086777;27;42941;-82
2023/05/10 09:45:47;;;;;;;;;;;21.10;60.90;;;;;;5086881;27;42916;-82
2023/05/10 09:48:13;;;;;;;;;;;21.10;60.50;;;;;;5086849;27;42754;-82
2023/05/10 09:50:38;;;;;;;;;;;21.00;60.60;;;;;;5086586;28;42727;-82
2023/05/10 09:53:04;;;;;;;;;;;21.10;60.80;;;;;;5086400;28;42943;-82
2023/05/10 09:55:35;;;;;;;;;;;20.90;60.40;;;;;;5085909;28;43570;-82
2023/05/10 09:58:01;;;;;;;;;;;21.20;60.50;;;;;;5086084;28;42757;-81
2023/05/10 10:00:27;;;;;;;;;;;21.20;60.30;;;;;;5085979;28;43868;-82
2023/05/10 10:02:59;;;;;;;;;;;21.00;60.40;;;;;;5086314;27;42844;-82
2023/05/10 10:05:35;;;;;;;;;;;21.10;60.30;;;;;;5086608;27;43012;-81
2023/05/10 10:08:05;;;;;;;;;;;21.10;60.40;;;;;;5084699;27;42996;-81
2023/05/10 10:10:31;;;;;;;;;;;21.00;60.40;;;;;;5086582;27;42973;-82
2023/05/10 10:12:56;;;;;;;;;;;21.10;58.80;;;;;;5086050;27;43344;-81
2023/05/10 10:15:22;;;;;;;;;;;20.60;59.80;;;;;;5086107;27;42975;-82
2023/05/10 10:17:49;;;;;;;;;;;21.10;60.20;;;;;;5083904;28;42944;-81
2023/05/10 10:20:14;;;;;;;;;;;21.00;60.20;;;;;;5085727;28;42866;-82
2023/05/10 10:22:40;;;;;;;;;;;21.00;60.10;;;;;;5085229;28;42747;-81
2023/05/10 10:25:06;;;;;;;;;;;21.00;60.30;;;;;;5085709;28;43276;-82
2023/05/10 10:27:50;;;;;;;;;;;21.00;60.40;;;;;;5086237;27;43029;-82
2023/05/10 10:30:21;;;;;;;;;;;21.00;60.00;;;;;;5085962;28;42949;-81
2023/05/10 10:33:01;;;;;;;;;;;21.10;59.90;;;;;;5085325;28;42971;-82
2023/05/10 10:35:27;;;;;;;;;;;21.10;59.80;;;;;;5085426;27;43341;-82
2023/05/10 10:37:53;;;;;;;;;;;21.20;59.90;;;;;;5085989;27;43146;-81
2023/05/10 10:40:32;;;;;;;;;;;21.10;59.80;;;;;;5085760;28;42908;-81
2023/05/10 10:42:58;;;;;;;;;;;21.10;60.20;;;;;;5084950;27;42990;-81
2023/05/10 10:45:24;;;;;;;;;;;21.00;60.50;;;;;;5084991;28;43044;-81
2023/05/10 10:48:25;;;;;;;;;;;21.20;60.40;;;;;;5085350;28;43011;-82
2023/05/10 10:50:57;;;;;;;;;;;21.10;60.30;;;;;;5001732;28;42998;-82
2023/05/10 10:53:25;;;;;;;;;;;21.00;60.50;;;;;;5002834;28;42906;-81
2023/05/10 10:56:02;;;;;;;;;;;20.90;60.40;;;;;;4985965;28;44932;-82
2023/05/10 10:58:33;;;;;;;;;;;21.00;60.50;;;;;;5002834;28;43098;-82
2023/05/10 11:01:12;;;;;;;;;;;21.00;60.60;;;;;;5002852;28;43008;-82
2023/05/10 11:03:37;;;;;;;;;;;21.10;60.80;;;;;;5002336;28;43083;-77
2023/05/10 11:06:03;;;;;;;;;;;21.00;61.20;;;;;;5007584;28;43075;-82
2023/05/10 11:08:29;;;;;;;;;;;21.10;61.00;;;;;;5002723;28;43055;-83
2023/05/10 11:11:00;;;;;;;;;;;21.10;61.40;;;;;;4993817;28;43818;-83
2023/05/10 11:13:29;;;;;;;;;;;21.00;61.40;;;;;;5001044;28;42968;-83
2023/05/10 11:15:56;;;;;;;;;;;21.00;61.30;;;;;;5001597;28;43215;-83
2023/05/10 11:18:29;;;;;;;;;;;21.00;61.20;;;;;;5000229;28;43155;-81
2023/05/10 11:21:02;;;;;;;;;;;21.00;61.30;;;;;;5000246;28;43459;-84
2023/05/10 11:23:31;;;;;;;;;;;21.00;61.60;;;;;;4999794;28;42988;-82
2023/05/10 11:25:57;;;;;;;;;;;20.90;61.40;;;;;;5080655;27;43125;-82
2023/05/10 11:28:22;;;;;;;;;;;21.00;61.30;;;;;;5084044;27;42951;-77
2023/05/10 11:30:48;;;;;;;;;;;21.10;61.50;;;;;;5083925;28;42979;-79
2023/05/10 11:33:17;;;;;;;;;;;21.00;61.30;;;;;;5083853;27;42945;-78
2023/05/10 11:35:43;;;;;;;;;;;21.00;61.50;;;;;;5083507;27;43883;-77
2023/05/10 11:38:10;;;;;;;;;;;21.10;61.60;;;;;;5084298;28;42802;-84
2023/05/10 11:40:36;;;;;;;;;;;21.00;61.30;;;;;;5079546;27;42947;-85
2023/05/10 11:43:01;;;;;;;;;;;21.10;61.50;;;;;;5081449;27;42979;-80
2023/05/10 11:45:28;;;;;;;;;;;20.90;61.60;;;;;;5089097;27;43475;-79
2023/05/10 11:47:54;;;;;;;;;;;21.10;61.90;;;;;;5082497;27;42963;-78
2023/05/10 11:50:20;;;;;;;;;;;21.10;62.20;;;;;;5084207;27;42939;-78
2023/05/10 11:52:52;;;;;;;;;;;21.00;62.20;;;;;;5084616;27;43369;-81
2023/05/10 11:55:17;;;;;;;;;;;20.90;62.00;;;;;;5082713;28;42980;-80
2023/05/10 11:57:45;;;;;;;;;;;;;;;;;;5086934;27;42999;-80
2023/05/10 12:00:11;;;;;;;;;;;21.00;61.70;;;;;;5081486;27;43156;-81
2023/05/10 12:02:37;;;;;;;;;;;21.20;61.50;;;;;;5083996;28;42890;-80
2023/05/10 12:05:03;;;;;;;;;;;20.90;60.90;;;;;;5084312;27;42972;-81
2023/05/10 12:07:29;;;;;;;;;;;20.60;61.30;;;;;;5087096;27;42960;-80
2023/05/10 12:10:08;;;;;;;;;;;20.90;60.60;;;;;;5084422;27;42995;-79
2023/05/10 12:12:37;;;;;;;;;;;20.90;61.10;;;;;;5081885;28;42923;-81
2023/05/10 12:15:04;;;;;;;;;;;20.80;61.10;;;;;;5079048;28;43726;-80
2023/05/10 12:17:32;;;;;;;;;;;20.90;60.50;;;;;;5083290;27;43172;-81
2023/05/10 12:20:22;;;;;;;;;;;21.00;59.50;;;;;;5083667;28;43924;-84
2023/05/10 12:22:52;;;;;;;;;;;20.90;59.60;;;;;;5080998;28;42932;-81
2023/05/10 12:25:18;;;;;;;;;;;20.70;59.70;;;;;;5084071;27;43286;-81
2023/05/10 12:28:03;;;;;;;;;;;20.70;60.30;;;;;;5083225;27;43049;-81
2023/05/10 12:30:29;;;;;;;;;;;20.50;60.90;;;;;;5086992;22;43325;-81
2023/05/10 12:35:50;;;;;;;;;;;20.70;62.80;;;;;;5047429;28;43020;-81
2023/05/10 12:38:25;;;;;;;;;;;20.50;62.60;;;;;;5087613;27;43066;-82
2023/05/10 12:40:50;;;;;;;;;;;20.50;62.30;;;;;;5079898;28;43740;-80
2023/05/10 12:43:16;;;;;;;;;;;20.60;62.30;;;;;;5083191;27;43174;-80
2023/05/10 12:45:41;;;;;;;;;;;20.70;62.70;;;;;;5086780;28;42959;-80
2023/05/10 12:48:07;;;;;;;;;;;20.60;62.50;;;;;;5087484;27;43134;-80
2023/05/10 12:50:32;;;;;;;;;;;20.70;62.60;;;;;;5081600;28;43112;-80
2023/05/10 12:52:58;;;;;;;;;;;20.50;62.70;;;;;;5086832;28;42995;-80
2023/05/10 12:55:23;;;;;;;;;;;20.60;63.00;;;;;;5084873;28;43915;-81
2023/05/10 12:57:49;;;;;;;;;;;20.60;63.10;;;;;;5081992;28;42967;-81
2023/05/10 13:00:15;;;;;;;;;;;20.60;62.90;;;;;;5085329;28;43610;-80
2023/05/10 13:02:40;;;;;;;;;;;20.50;63.30;;;;;;5086556;27;42944;-81
2023/05/10 13:05:06;;;;;;;;;;;20.40;63.50;;;;;;5085033;28;43017;-80
2023/05/10 13:07:31;;;;;;;;;;;20.40;63.50;;;;;;5079128;28;45164;-78
2023/05/10 13:09:57;;;;;;;;;;;20.40;63.40;;;;;;5083336;28;42956;-81
2023/05/10 13:12:23;;;;;;;;;;;20.50;63.60;;;;;;5086905;28;42782;-78
2023/05/10 13:14:48;;;;;;;;;;;20.40;63.90;;;;;;5083309;27;42917;-80
2023/05/10 13:17:14;;;;;;;;;;;20.40;63.90;;;;;;5081708;28;42928;-79
2023/05/10 13:19:39;;;;;;;;;;;20.40;63.70;;;;;;5080589;27;43015;-78
2023/05/10 13:22:05;;;;;;;;;;;20.40;63.90;;;;;;5085971;28;42845;-77
2023/05/10 13:24:30;;;;;;;;;;;20.40;64.30;;;;;;5086492;28;43998;-84
2023/05/10 13:26:56;;;;;;;;;;;20.50;64.70;;;;;;5086333;28;43095;-80
2023/05/10 13:29:22;;;;;;;;;;;20.30;64.60;;;;;;5086739;28;43081;-84
2023/05/10 13:31:47;;;;;;;;;;;20.30;64.60;;;;;;5086402;27;43050;-81
2023/05/10 13:34:13;;;;;;;;;;;20.30;64.80;;;;;;5087271;28;42853;-84
2023/05/10 13:36:39;;;;;;;;;;;20.30;64.70;;;;;;5087161;28;42965;-82
2023/05/10 13:39:05;;;;;;;;;;;20.50;65.00;;;;;;5084651;27;43358;-83
2023/05/10 13:41:30;;;;;;;;;;;19.90;64.20;;;;;;5081587;27;42972;-80
2023/05/10 13:43:56;;;;;;;;;;;20.30;64.30;;;;;;5086309;28;42941;-80
2023/05/10 13:46:21;;;;;;;;;;;20.50;64.40;;;;;;5086326;28;42902;-81
2023/05/10 13:48:47;;;;;;;;;;;20.40;64.40;;;;;;5084800;28;44306;-81
2023/05/10 13:51:13;;;;;;;;;;;20.40;64.50;;;;;;5086464;28;42996;-82
2023/05/10 13:53:38;;;;;;;;;;;20.40;64.80;;;;;;5086671;28;43415;-82
2023/05/10 13:56:04;;;;;;;;;;;20.30;65.20;;;;;;5086899;28;42948;-81
2023/05/10 13:58:29;;;;;;;;;;;20.40;65.30;;;;;;5084152;27;43380;-81
2023/05/10 14:00:55;;;;;;;;;;;20.40;65.20;;;;;;5086825;27;42916;-81
2023/05/10 14:03:21;;;;;;;;;;;20.20;65.20;;;;;;5086185;27;43348;-81
2023/05/10 14:05:47;;;;;;;;;;;20.40;65.30;;;;;;5086501;28;42978;-82
2023/05/10 14:08:13;;;;;;;;;;;19.90;65.20;;;;;;5084008;28;43024;-81
2023/05/10 14:10:39;;;;;;;;;;;20.10;65.20;;;;;;5086237;27;42977;-80
2023/05/10 14:13:04;;;;;;;;;;;20.30;65.10;;;;;;5084144;27;42983;-81
2023/05/10 14:15:30;;;;;;;;;;;20.40;65.30;;;;;;5085279;28;43041;-81
2023/05/10 14:17:56;;;;;;;;;;;20.50;65.50;;;;;;5078908;27;43733;-81
2023/05/10 14:20:21;;;;;;;;;;;20.10;65.40;;;;;;5085724;28;42841;-82